Time;durP1;ratioP1;P1;durP2;ratioP2;P2;SDS_P1;SDS_P2;PMS_P1;PMS_P2;Temp;Humidity;BMP_temperature;BMP_pressure;BME280_temperature;BME280_humidity;BME280_pressure;Samples;Min_cycle;Max_cycle;Signal;HPM_P1;HPM_P2
2022/11/24 00:01:22;;;;;;;20.30;4.30;;;;;;;6.77;100.00;100266.97;4818611;29;20016;-84
2022/11/24 00:03:56;;;;;;;14.25;3.70;;;;;;;6.72;100.00;100266.16;4826204;29;20066;-84
2022/11/24 00:06:22;;;;;;;25.27;3.70;;;;;;;6.73;100.00;100267.94;4808367;29;20042;-84
2022/11/24 00:08:48;;;;;;;18.77;4.22;;;;;;;6.70;100.00;100272.34;4807603;29;20429;-84
2022/11/24 00:11:19;;;;;;;27.92;4.70;;;;;;;6.67;100.00;100273.25;4808301;29;20034;-84
2022/11/24 00:13:45;;;;;;;29.48;3.83;;;;;;;6.67;100.00;100271.50;4824961;29;20067;-84
2022/11/24 00:16:22;;;;;;;22.60;4.03;;;;;;;6.67;100.00;100281.16;4837244;29;20033;-84
2022/11/24 00:18:49;;;;;;;25.77;3.90;;;;;;;6.65;100.00;100282.94;4824617;29;20113;-84
2022/11/24 00:21:16;;;;;;;22.40;4.18;;;;;;;6.65;100.00;100283.84;4807783;29;20038;-84
2022/11/24 00:23:42;;;;;;;26.17;4.10;;;;;;;6.68;100.00;100288.19;4824625;29;20502;-84
2022/11/24 00:26:14;;;;;;;19.27;3.92;;;;;;;6.70;100.00;100301.28;4808018;29;20129;-83
2022/11/24 00:28:41;;;;;;;14.20;3.05;;;;;;;6.68;100.00;100298.69;4816287;29;20048;-84
2022/11/24 00:31:16;;;;;;;15.40;3.30;;;;;;;6.68;100.00;100294.31;4841266;29;20026;-84
2022/11/24 00:33:41;;;;;;;17.33;3.58;;;;;;;6.68;100.00;100288.19;4824863;29;20344;-84
2022/11/24 00:36:07;;;;;;;15.75;3.42;;;;;;;6.68;100.00;100294.31;4836905;29;20038;-84
2022/11/24 00:38:33;;;;;;;18.00;3.60;;;;;;;6.68;100.00;100290.81;4826916;29;20382;-84
2022/11/24 00:40:58;;;;;;;19.42;3.30;;;;;;;6.70;100.00;100293.41;4798131;29;20468;-84
2022/11/24 00:43:24;;;;;;;19.85;3.53;;;;;;;6.68;100.00;100290.81;4822723;29;20051;-84
2022/11/24 00:45:49;;;;;;;19.23;3.70;;;;;;;6.68;100.00;100304.81;4792723;29;20131;-84
2022/11/24 00:48:15;;;;;;;17.35;3.45;;;;;;;6.70;100.00;100296.94;4805603;29;20043;-83
2022/11/24 00:50:41;;;;;;;15.98;3.63;;;;;;;6.73;100.00;100296.88;4797198;29;20137;-84
2022/11/24 00:53:06;;;;;;;16.02;3.25;;;;;;;6.72;100.00;100295.13;4823897;29;20129;-85
2022/11/24 00:55:31;;;;;;;17.63;3.50;;;;;;;6.64;100.00;100291.72;4823958;29;20035;-85
2022/11/24 00:57:57;;;;;;;32.17;4.70;;;;;;;6.66;100.00;100300.47;4820506;29;20117;-84
2022/11/24 01:00:22;;;;;;;15.05;3.38;;;;;;;6.62;100.00;100304.03;4825582;29;20061;-84
2022/11/24 01:02:48;;;;;;;19.15;3.83;;;;;;;6.61;100.00;100300.53;4825335;29;20038;-84
2022/11/24 01:05:13;;;;;;;17.38;3.53;;;;;;;6.62;100.00;100315.41;4824038;29;20133;-84
2022/11/24 01:07:39;;;;;;;19.10;3.50;;;;;;;6.60;100.00;100317.22;4832153;29;20042;-84
2022/11/24 01:10:05;;;;;;;12.90;3.60;;;;;;;6.62;100.00;100322.44;4807647;29;20161;-83
2022/11/24 01:12:31;;;;;;;17.75;3.50;;;;;;;6.59;100.00;100325.13;4825690;29;20340;-84
2022/11/24 01:14:57;;;;;;;17.40;3.35;;;;;;;6.63;100.00;100322.44;4834632;29;20030;-84
2022/11/24 01:17:23;;;;;;;18.90;3.80;;;;;;;6.60;100.00;100329.50;4807295;29;20042;-84
2022/11/24 01:19:49;;;;;;;17.52;3.17;;;;;;;6.61;100.00;100328.63;4825098;29;20054;-84
2022/11/24 01:22:15;;;;;;;12.75;3.17;;;;;;;6.59;100.00;100325.13;4810763;29;20034;-84
2022/11/24 01:24:41;;;;;;;17.55;4.10;;;;;;;6.59;100.00;100330.41;4826919;29;20057;-84
2022/11/24 01:27:06;;;;;;;18.80;4.10;;;;;;;6.59;100.00;100340.91;4828616;29;20045;-84
2022/11/24 01:29:32;;;;;;;22.40;3.88;;;;;;;6.59;100.00;100322.50;4810588;29;20113;-84
2022/11/24 01:31:57;;;;;;;19.02;3.80;;;;;;;6.59;100.00;100327.78;4824486;29;20514;-84
2022/11/24 01:34:23;;;;;;;14.10;2.95;;;;;;;6.59;100.00;100320.75;4805572;29;20066;-78
2022/11/24 01:36:48;;;;;;;28.77;4.50;;;;;;;6.60;100.00;100330.38;4824541;29;20046;-77
2022/11/24 01:39:14;;;;;;;19.48;3.65;;;;;;;6.61;100.00;100334.75;4834585;29;20077;-77
2022/11/24 01:41:39;;;;;;;24.48;3.92;;;;;;;6.60;100.00;100337.38;4838703;29;20114;-77
2022/11/24 01:44:27;;;;;;;15.48;4.05;;;;;;;6.59;100.00;100341.78;4818138;29;20091;-77
2022/11/24 01:46:59;;;;;;;16.83;3.25;;;;;;;6.56;100.00;100349.72;4845043;29;20038;-77
2022/11/24 01:49:44;;;;;;;16.10;3.67;;;;;;;6.53;100.00;100348.88;4837732;29;20478;-78
2022/11/24 01:52:18;;;;;;;20.77;3.70;;;;;;;6.54;100.00;100359.38;4834096;29;20387;-77
2022/11/24 01:54:50;;;;;;;21.20;3.30;;;;;;;6.52;100.00;100349.78;4835605;29;20531;-77
2022/11/24 01:57:30;;;;;;;13.88;3.20;;;;;;;6.58;100.00;100363.72;4809387;29;20042;-78
2022/11/24 02:00:04;;;;;;;18.42;3.33;;;;;;;6.59;100.00;100357.56;4825742;29;20079;-78
2022/11/24 02:02:40;;;;;;;19.90;3.28;;;;;;;6.58;100.00;100355.84;4826990;29;20033;-78
2022/11/24 02:05:29;;;;;;;15.98;3.20;;;;;;;6.61;100.00;100366.31;4843805;29;20132;-78
2022/11/24 02:07:59;;;;;;;18.77;3.40;;;;;;;6.60;100.00;100371.59;4826107;29;20106;-77
2022/11/24 02:10:24;;;;;;;21.55;3.58;;;;;;;6.61;100.00;100371.56;4827197;29;20049;-77
2022/11/24 02:12:53;;;;;;;13.35;3.25;;;;;;;6.62;100.00;100367.19;4827295;29;20022;-78
2022/11/24 02:15:20;;;;;;;25.75;3.90;;;;;;;6.59;100.00;100375.97;4843798;29;20037;-78
2022/11/24 02:17:45;;;;;;;16.58;3.15;;;;;;;6.58;100.00;100376.03;4843684;29;20435;-78
2022/11/24 02:20:12;;;;;;;17.30;3.58;;;;;;;6.58;100.00;100376.88;4843571;29;20058;-78
2022/11/24 02:22:58;;;;;;;25.23;3.70;;;;;;;6.55;100.00;100390.09;4838321;29;20407;-77
2022/11/24 02:25:39;;;;;;;18.25;3.58;;;;;;;6.50;100.00;100386.63;4827185;29;20042;-78
2022/11/24 02:28:11;;;;;;;26.27;4.32;;;;;;;6.46;100.00;100384.94;4826348;29;20125;-78
2022/11/24 02:30:36;;;;;;;21.27;4.13;;;;;;;6.46;100.00;100404.22;4843262;29;20503;-78
2022/11/24 02:33:02;;;;;;;20.55;3.67;;;;;;;6.45;100.00;100394.59;4825733;29;20057;-77
2022/11/24 02:35:28;;;;;;;18.58;3.58;;;;;;;6.42;100.00;100393.75;4813553;29;20499;-77
2022/11/24 02:37:53;;;;;;;22.90;3.88;;;;;;;6.39;100.00;100394.66;4830936;29;20492;-77
2022/11/24 02:40:25;;;;;;;18.83;3.45;;;;;;;6.41;100.00;100397.28;4825931;29;20475;-77
2022/11/24 02:42:55;;;;;;;21.17;3.92;;;;;;;6.36;100.00;100393.81;4832569;29;20046;-78
2022/11/24 02:45:22;;;;;;;15.35;3.30;;;;;;;6.34;100.00;100391.19;4810061;29;20041;-78
2022/11/24 02:47:47;;;;;;;18.98;3.10;;;;;;;6.33;100.00;100385.94;4811735;29;20046;-78
2022/11/24 02:50:13;;;;;;;17.90;3.30;;;;;;;6.36;100.00;100399.09;4843108;29;20413;-77
2022/11/24 02:52:38;;;;;;;22.48;3.22;;;;;;;6.35;100.00;100392.94;4843138;29;20050;-77
2022/11/24 02:55:04;;;;;;;25.10;3.78;;;;;;;6.32;100.00;100394.75;4832235;29;20403;-77
2022/11/24 02:57:30;;;;;;;20.67;3.55;;;;;;;6.34;100.00;100396.47;4843271;29;20106;-78
2022/11/24 02:59:55;;;;;;;18.52;3.45;;;;;;;6.34;100.00;100387.72;4804912;29;20026;-77
2022/11/24 03:02:21;;;;;;;18.90;4.00;;;;;;;6.39;100.00;100402.53;4820826;29;20116;-77
2022/11/24 03:04:47;;;;;;;22.90;3.85;;;;;;;6.41;100.00;100407.78;4826392;29;20034;-77
2022/11/24 03:07:13;;;;;;;16.77;3.35;;;;;;;6.43;100.00;100406.03;4830457;29;20035;-77
2022/11/24 03:09:39;;;;;;;22.92;3.90;;;;;;;6.47;100.00;100405.06;4811178;29;20037;-77
2022/11/24 03:12:04;;;;;;;25.50;4.50;;;;;;;6.51;100.00;100408.56;4826268;29;20407;-78
2022/11/24 03:14:30;;;;;;;19.95;4.00;;;;;;;6.50;100.00;100412.91;4842231;29;20036;-78
2022/11/24 03:16:55;;;;;;;25.30;4.18;;;;;;;6.51;100.00;100405.94;4825983;29;20034;-77
2022/11/24 03:19:21;;;;;;;21.80;4.03;;;;;;;6.51;100.00;100413.81;4829287;29;20579;-77
2022/11/24 03:21:46;;;;;;;20.83;4.28;;;;;;;6.51;100.00;100414.69;4842468;29;20041;-77
2022/11/24 03:24:11;;;;;;;28.33;4.70;;;;;;;6.51;100.00;100426.97;4825850;29;20054;-78
2022/11/24 03:26:37;;;;;;;20.85;3.60;;;;;;;6.51;100.00;100413.81;4842349;29;20053;-77
2022/11/24 03:29:02;;;;;;;25.67;4.82;;;;;;;6.49;100.00;100408.56;4820029;29;20058;-77
2022/11/24 03:31:48;;;;;;;27.67;4.45;;;;;;;6.54;100.00;100413.78;4826007;29;20041;-78
2022/11/24 03:34:19;;;;;;;18.20;3.90;;;;;;;6.55;100.00;100416.41;4815553;29;20649;-78
2022/11/24 03:36:45;;;;;;;23.00;4.30;;;;;;;6.62;100.00;100425.94;4824283;29;20041;-78
2022/11/24 03:39:10;;;;;;;24.08;4.25;;;;;;;6.65;100.00;100420.66;4842152;29;20037;-78
2022/11/24 03:41:36;;;;;;;19.95;4.47;;;;;;;6.68;100.00;100423.25;4841725;29;20042;-77
2022/11/24 03:44:01;;;;;;;21.55;4.13;;;;;;;6.75;100.00;100431.03;4825417;29;20082;-77
2022/11/24 03:46:27;;;;;;;29.00;4.97;;;;;;;6.76;100.00;100424.91;4842228;29;20038;-78
2022/11/24 03:48:52;;;;;;;21.25;4.00;;;;;;;6.78;100.00;100425.75;4841995;29;20398;-78
2022/11/24 03:51:21;;;;;;;23.77;3.83;;;;;;;6.82;100.00;100422.19;4842016;29;20049;-78
2022/11/24 03:53:46;;;;;;;26.00;5.78;;;;;;;6.81;100.00;100423.94;4841758;29;20132;-78
2022/11/24 03:56:12;;;;;;;23.00;3.92;;;;;;;6.87;100.00;100420.34;4810621;29;20226;-77
2022/11/24 03:58:37;;;;;;;22.15;4.35;;;;;;;6.89;100.00;100424.69;4795083;29;20195;-78
2022/11/24 04:01:03;;;;;;;29.45;4.32;;;;;;;6.88;100.00;100427.38;4817305;29;20053;-77
2022/11/24 04:03:28;;;;;;;29.75;5.07;;;;;;;6.97;100.00;100426.38;4820959;29;20057;-78
2022/11/24 04:05:54;;;;;;;21.90;4.90;;;;;;;7.00;100.00;100431.63;4807493;29;20039;-78
2022/11/24 04:08:19;;;;;;;23.48;4.18;;;;;;;7.03;100.00;100426.28;4817806;29;20086;-77
2022/11/24 04:10:49;;;;;;;30.40;4.22;;;;;;;7.02;100.00;100427.16;4841704;29;20102;-77
2022/11/24 04:13:16;;;;;;;24.30;5.40;;;;;;;7.02;100.00;100446.50;4825281;29;20073;-78
2022/11/24 04:15:42;;;;;;;21.42;3.65;;;;;;;7.02;100.00;100443.88;4841755;29;20034;-77
2022/11/24 04:18:10;;;;;;;23.05;4.22;;;;;;;7.02;100.00;100441.22;4836423;29;20045;-77
2022/11/24 04:20:36;;;;;;;25.30;4.25;;;;;;;7.05;100.00;100449.06;4836550;29;20486;-77
2022/11/24 04:23:02;;;;;;;22.15;4.05;;;;;;;7.05;100.00;100448.22;4841710;29;20029;-78
2022/11/24 04:25:27;;;;;;;24.33;3.80;;;;;;;7.06;100.00;100450.81;4825093;29;20038;-79
2022/11/24 04:27:54;;;;;;;26.90;4.72;;;;;;;7.08;100.00;100459.56;4835083;29;20114;-78
2022/11/24 04:30:22;;;;;;;19.42;4.30;;;;;;;7.34;100.00;100468.84;4808422;29;20042;-80
2022/11/24 04:32:47;;;;;;;18.00;2.92;;;;;;;7.16;100.00;100462.09;4841322;29;20029;-78
2022/11/24 04:35:13;;;;;;;8.05;2.38;;;;;;;7.13;100.00;100463.91;4789633;29;20040;-77
2022/11/24 04:37:39;;;;;;;13.60;2.55;;;;;;;6.99;99.93;100483.38;4835748;29;20440;-78
2022/11/24 04:40:06;;;;;;;12.18;2.50;;;;;;;6.96;99.95;100491.31;4835821;29;20018;-77
2022/11/24 04:42:32;;;;;;;7.05;1.77;;;;;;;6.81;100.00;100481.84;4838825;29;20045;-78
2022/11/24 04:44:57;;;;;;;9.18;2.22;;;;;;;6.74;100.00;100485.44;4816122;29;20045;-78
2022/11/24 04:47:24;;;;;;;7.20;1.70;;;;;;;6.66;100.00;100495.19;4817726;29;20077;-77
2022/11/24 04:49:49;;;;;;;6.72;1.52;;;;;;;6.71;100.00;100500.41;4823207;29;20060;-77
2022/11/24 04:52:20;;;;;;;6.35;2.03;;;;;;;6.67;100.00;100505.69;4839069;29;20062;-77
2022/11/24 04:54:46;;;;;;;8.20;1.93;;;;;;;6.58;100.00;100503.16;4826519;29;20445;-76
2022/11/24 04:57:30;;;;;;;9.18;1.88;;;;;;;6.53;100.00;100504.09;4831872;29;20638;-83
2022/11/24 04:59:55;;;;;;;9.32;2.15;;;;;;;6.49;100.00;100505.03;4809888;29;20483;-82
2022/11/24 05:02:22;;;;;;;7.35;1.65;;;;;;;6.50;100.00;100512.88;4827220;29;20049;-82
2022/11/24 05:04:48;;;;;;;8.15;2.40;;;;;;;6.42;100.00;100512.97;4814608;29;20116;-83
2022/11/24 05:07:14;;;;;;;9.98;1.83;;;;;;;6.42;100.00;100517.38;4833903;29;20046;-83
2022/11/24 05:12:29;;;;;;;5.50;1.55;;;;;;;6.43;100.00;100522.63;4840245;29;20467;-82
2022/11/24 05:14:59;;;;;;;7.45;1.85;;;;;;;6.42;100.00;100518.22;4814388;29;20038;-82
2022/11/24 05:17:33;;;;;;;7.30;2.05;;;;;;;6.43;100.00;100524.38;4831176;29;20133;-82
2022/11/24 05:19:59;;;;;;;11.05;1.90;;;;;;;6.42;100.00;100520.84;4826208;29;20038;-81
2022/11/24 05:22:27;;;;;;;9.10;1.95;;;;;;;6.43;100.00;100535.78;4833410;29;20038;-82
2022/11/24 05:24:52;;;;;;;7.05;2.13;;;;;;;6.44;100.00;100532.25;4834984;29;20037;-82
2022/11/24 05:27:18;;;;;;;11.65;2.63;;;;;;;6.42;100.00;100536.63;4820143;29;20392;-82
2022/11/24 05:29:43;;;;;;;10.02;2.40;;;;;;;6.42;100.00;100533.16;4833879;29;20057;-82
2022/11/24 05:32:09;;;;;;;17.88;2.80;;;;;;;6.45;100.00;100541.00;4766955;29;20627;-83
2022/11/24 05:34:34;;;;;;;9.45;2.40;;;;;;;6.47;100.00;100544.50;4829170;29;20042;-82
2022/11/24 05:37:02;;;;;;;9.07;1.90;;;;;;;6.45;100.00;100546.25;4826159;29;20060;-82
2022/11/24 05:39:34;;;;;;;16.58;2.22;;;;;;;6.47;100.00;100547.13;4827107;29;20043;-82
2022/11/24 05:42:39;;;;;;;9.85;2.47;;;;;;;6.47;100.00;100545.34;4827620;29;20034;-82
2022/11/24 05:44:51;;;;;;;10.75;2.65;;;;;;;6.46;100.00;100556.78;4833487;29;20054;-82
2022/11/24 05:47:17;;;;;;;14.73;2.50;;;;;;;6.46;100.00;100561.19;4812598;29;20412;-82
2022/11/24 05:49:43;;;;;;;13.32;2.58;;;;;;;6.46;100.00;100563.81;4828180;29;20034;-83
2022/11/24 05:52:09;;;;;;;15.13;2.38;;;;;;;6.46;100.00;100566.44;4815765;29;20474;-82
2022/11/24 05:54:34;;;;;;;16.38;2.53;;;;;;;6.45;100.00;100565.56;4825022;29;20046;-82
2022/11/24 05:57:00;;;;;;;11.13;2.80;;;;;;;6.45;100.00;100575.19;4834010;29;20041;-82
2022/11/24 05:59:25;;;;;;;8.57;2.10;;;;;;;6.46;100.00;100582.22;4795820;29;20050;-82
2022/11/24 06:01:51;;;;;;;14.10;2.38;;;;;;;6.46;100.00;100582.22;4794837;29;20074;-82
2022/11/24 06:04:16;;;;;;;10.73;2.35;;;;;;;6.48;100.00;100585.72;4826187;29;20022;-82
2022/11/24 06:06:42;;;;;;;8.68;2.28;;;;;;;6.49;100.00;100587.44;4804748;29;20356;-82
2022/11/24 06:09:07;;;;;;;12.63;2.30;;;;;;;6.45;100.00;100586.63;4805926;29;20385;-82
2022/11/24 06:11:33;;;;;;;12.07;2.25;;;;;;;6.50;100.00;100604.09;4794427;29;20039;-82
2022/11/24 06:13:58;;;;;;;13.55;2.53;;;;;;;6.51;100.00;100604.09;4807583;29;20586;-82
2022/11/24 06:16:24;;;;;;;9.30;2.00;;;;;;;6.50;100.00;100602.31;4804478;29;20046;-82
2022/11/24 06:18:50;;;;;;;12.95;2.63;;;;;;;6.52;100.00;100605.81;4799732;29;20106;-82
2022/11/24 06:21:16;;;;;;;11.30;2.22;;;;;;;6.54;100.00;100609.31;4801163;29;20059;-82
2022/11/24 06:23:41;;;;;;;13.98;2.85;;;;;;;6.54;100.00;100613.72;4809473;29;20073;-82
2022/11/24 06:26:08;;;;;;;12.40;2.85;;;;;;;6.64;100.00;100616.22;4825568;29;20070;-82
2022/11/24 06:28:34;;;;;;;13.63;2.40;;;;;;;6.61;100.00;100625.94;4807232;29;20134;-81
2022/11/24 06:31:03;;;;;;;9.48;2.33;;;;;;;6.62;100.00;100631.16;4823617;29;20387;-81
2022/11/24 06:33:33;;;;;;;13.25;2.35;;;;;;;6.62;100.00;100638.19;4811802;29;20048;-82
2022/11/24 06:36:04;;;;;;;10.98;2.83;;;;;;;6.64;100.00;100641.69;4833441;29;20068;-84
2022/11/24 06:38:31;;;;;;;12.15;2.38;;;;;;;6.63;100.00;100645.22;4842213;29;20046;-82
2022/11/24 06:41:10;;;;;;;8.50;2.30;;;;;;;6.57;100.00;100643.47;4843657;29;20061;-82
2022/11/24 06:43:35;;;;;;;6.63;2.17;;;;;;;6.61;100.00;100653.09;4830964;29;20030;-83
2022/11/24 06:46:01;;;;;;;16.38;3.03;;;;;;;6.61;100.00;100658.38;4818355;29;20045;-82
2022/11/24 06:48:27;;;;;;;10.48;2.65;;;;;;;6.62;100.00;100661.88;4825264;29;20046;-82
2022/11/24 06:50:57;;;;;;;7.65;2.20;;;;;;;6.61;100.00;100665.41;4825420;29;20120;-82
2022/11/24 06:53:22;;;;;;;12.70;3.08;;;;;;;6.57;100.00;100669.78;4808982;29;20069;-81
2022/11/24 06:55:49;;;;;;;14.50;2.75;;;;;;;6.55;100.00;100681.22;4806366;29;20042;-82
2022/11/24 06:58:14;;;;;;;13.73;2.65;;;;;;;6.54;100.00;100693.50;4836676;29;20057;-81
2022/11/24 07:00:40;;;;;;;12.88;2.35;;;;;;;6.53;100.00;100693.50;4823661;29;20053;-82
2022/11/24 07:03:06;;;;;;;10.18;2.67;;;;;;;6.53;100.00;100704.03;4825201;29;20084;-81
2022/11/24 07:05:31;;;;;;;11.98;3.10;;;;;;;6.51;100.00;100703.19;4827409;29;20046;-82
2022/11/24 07:08:00;;;;;;;12.00;2.22;;;;;;;6.46;100.00;100711.13;4819371;29;20476;-81
2022/11/24 07:10:26;;;;;;;11.30;2.47;;;;;;;6.49;100.00;100718.97;4809076;29;20038;-83
2022/11/24 07:12:51;;;;;;;9.95;2.88;;;;;;;6.45;100.00;100725.13;4808804;29;20363;-82
2022/11/24 07:15:17;;;;;;;10.40;2.17;;;;;;;6.44;100.00;100732.16;4837051;29;20040;-82
2022/11/24 07:17:42;;;;;;;7.95;2.58;;;;;;;6.41;100.00;100745.34;4808721;29;20368;-82
2022/11/24 07:20:09;;;;;;;6.55;1.70;;;;;;;6.40;100.00;100747.97;4818512;29;20231;-83
2022/11/24 07:22:34;;;;;;;7.05;1.92;;;;;;;6.39;100.00;100756.75;4814183;29;20410;-82
2022/11/24 07:25:00;;;;;;;11.20;2.55;;;;;;;6.37;100.00;100764.63;4835300;29;20026;-82
2022/11/24 07:27:26;;;;;;;10.57;2.03;;;;;;;6.36;100.00;100757.66;4808575;29;20102;-83
2022/11/24 07:29:52;;;;;;;9.57;2.08;;;;;;;6.34;100.00;100763.78;4814977;29;20486;-83
2022/11/24 07:32:21;;;;;;;10.85;2.20;;;;;;;6.33;100.00;100773.44;4817378;29;20023;-83
2022/11/24 07:34:46;;;;;;;10.50;2.20;;;;;;;6.33;100.00;100773.44;4818291;29;20034;-82
2022/11/24 07:37:11;;;;;;;7.15;1.83;;;;;;;6.30;100.00;100770.81;4824547;29;20406;-84
2022/11/24 07:39:37;;;;;;;13.40;2.20;;;;;;;6.34;100.00;100779.56;4821729;29;20033;-84
2022/11/24 07:42:04;;;;;;;7.50;2.13;;;;;;;6.34;100.00;100779.56;4804993;29;20042;-86
2022/11/24 07:44:29;;;;;;;8.75;2.13;;;;;;;6.32;100.00;100774.31;4808771;29;20073;-87
2022/11/24 07:46:55;;;;;;;8.20;1.90;;;;;;;6.36;100.00;100789.22;4826629;29;20058;-86
2022/11/24 07:49:20;;;;;;;9.52;2.55;;;;;;;6.33;100.00;100791.88;4809957;29;20440;-86
2022/11/24 07:51:46;;;;;;;12.55;2.17;;;;;;;6.33;100.00;100804.09;4792404;29;20463;-78
2022/11/24 07:54:11;;;;;;;10.82;2.17;;;;;;;6.30;100.00;100798.88;4824059;29;20038;-78
2022/11/24 07:56:37;;;;;;;10.25;2.00;;;;;;;6.29;100.00;100794.50;4824048;29;20125;-78
2022/11/24 07:59:03;;;;;;;6.35;1.77;;;;;;;6.25;100.00;100799.75;4807036;29;20495;-78
2022/11/24 08:01:28;;;;;;;14.57;2.70;;;;;;;6.24;100.00;100811.16;4822559;29;20038;-78
2022/11/24 08:03:54;;;;;;;11.88;2.50;;;;;;;6.21;100.00;100805.94;4823390;29;20049;-78
2022/11/24 08:06:20;;;;;;;12.13;2.42;;;;;;;6.25;100.00;100819.94;4807110;29;20042;-77
2022/11/24 08:08:46;;;;;;;9.88;2.60;;;;;;;6.24;100.00;100813.81;4823873;29;20071;-78
2022/11/24 08:11:14;;;;;;;9.43;2.38;;;;;;;6.31;100.00;100825.19;4823766;29;20090;-78
2022/11/24 08:13:40;;;;;;;9.30;2.10;;;;;;;6.28;100.00;100817.31;4823518;29;20030;-78
2022/11/24 08:16:07;;;;;;;11.13;2.15;;;;;;;6.31;100.00;100829.56;4806792;29;20091;-78
2022/11/24 08:18:34;;;;;;;6.68;1.63;;;;;;;6.28;100.00;100835.72;4806879;29;20038;-78
2022/11/24 08:21:00;;;;;;;10.63;2.13;;;;;;;6.28;100.00;100832.19;4806766;29;20082;-78
2022/11/24 08:23:26;;;;;;;9.18;2.28;;;;;;;6.27;100.00;100836.59;4823364;29;20390;-77
2022/11/24 08:25:53;;;;;;;9.63;2.38;;;;;;;6.34;100.00;100847.97;4823648;29;20117;-77
2022/11/24 08:28:18;;;;;;;11.25;2.50;;;;;;;6.36;100.00;100854.09;4804539;29;20088;-77
2022/11/24 08:30:44;;;;;;;11.82;3.05;;;;;;;6.41;100.00;100852.31;4823441;29;20065;-78
2022/11/24 08:33:09;;;;;;;12.25;2.28;;;;;;;6.44;100.00;100854.91;4823703;29;20050;-77
2022/11/24 08:35:36;;;;;;;12.93;2.58;;;;;;;6.46;100.00;100858.44;4831209;29;20440;-77
2022/11/24 08:38:03;;;;;;;7.55;2.15;;;;;;;6.47;100.00;100860.16;4813047;29;20042;-78
2022/11/24 08:40:28;;;;;;;12.65;2.40;;;;;;;6.49;100.00;100875.94;4841720;29;20110;-77
2022/11/24 08:43:01;;;;;;;9.52;1.92;;;;;;;6.51;100.00;100869.81;4825221;29;20499;-77
2022/11/24 08:45:27;;;;;;;11.90;3.40;;;;;;;6.54;100.00;100879.44;4841039;29;20479;-77
2022/11/24 08:47:54;;;;;;;12.80;2.45;;;;;;;6.58;100.00;100882.03;4835950;29;20184;-77
2022/11/24 08:50:21;;;;;;;12.82;2.38;;;;;;;6.60;100.00;100877.66;4824809;29;20062;-78
2022/11/24 08:52:47;;;;;;;10.82;2.47;;;;;;;6.66;100.00;100893.41;4806896;29;20051;-78
2022/11/24 08:55:13;;;;;;;10.43;2.90;;;;;;;6.75;100.00;100886.31;4806131;29;20384;-77
2022/11/24 08:57:38;;;;;;;13.77;3.10;;;;;;;6.73;100.00;100889.00;4822938;29;21017;-78
2022/11/24 09:00:05;;;;;;;16.48;2.65;;;;;;;6.78;100.00;100891.59;4805563;29;20110;-78
2022/11/24 09:02:30;;;;;;;15.85;2.65;;;;;;;6.84;100.00;100904.72;4812511;29;20042;-78
2022/11/24 09:04:56;;;;;;;13.68;3.20;;;;;;;6.86;100.00;100897.69;4822898;29;20057;-77
2022/11/24 09:07:21;;;;;;;12.02;2.42;;;;;;;6.91;100.00;100906.44;4791388;29;20071;-78
2022/11/24 09:09:46;;;;;;;13.82;2.60;;;;;;;6.95;100.00;100916.06;4806504;29;20050;-78
2022/11/24 09:12:12;;;;;;;8.75;2.20;;;;;;;6.98;100.00;100923.06;4806613;29;20042;-78
2022/11/24 09:14:37;;;;;;;8.00;2.13;;;;;;;7.01;100.00;100926.56;4806609;29;20034;-78
2022/11/24 09:17:03;;;;;;;10.45;2.70;;;;;;;7.02;100.00;100930.06;4822974;29;20571;-77
2022/11/24 09:19:28;;;;;;;11.15;2.63;;;;;;;7.08;100.00;100928.28;4806165;29;20038;-77
2022/11/24 09:21:54;;;;;;;10.55;2.67;;;;;;;7.13;100.00;100925.63;4822953;29;20031;-77
2022/11/24 09:24:19;;;;;;;13.02;2.85;;;;;;;7.09;100.00;100935.28;4834534;29;20121;-78
2022/11/24 09:26:45;;;;;;;11.30;2.38;;;;;;;7.14;100.00;100937.88;4806497;29;20142;-78
2022/11/24 09:29:11;;;;;;;10.70;2.70;;;;;;;7.18;100.00;100944.03;4780217;29;20114;-78
2022/11/24 09:31:38;;;;;;;14.20;3.10;;;;;;;7.20;100.00;100937.00;4806517;29;20053;-78
2022/11/24 09:34:06;;;;;;;10.23;2.28;;;;;;;7.27;100.00;100943.94;4822584;29;20137;-78
2022/11/24 09:36:31;;;;;;;12.18;2.78;;;;;;;7.30;100.00;100954.47;4820839;29;20026;-78
2022/11/24 09:38:57;;;;;;;12.27;3.83;;;;;;;7.33;100.00;100950.06;4809389;29;20348;-78
2022/11/24 09:41:36;;;;;;;21.35;3.42;;;;;;;7.40;99.97;100950.91;4826882;29;20042;-78
2022/11/24 09:44:27;;;;;;;13.98;2.85;;;;;;;7.42;99.43;100953.50;4821764;29;20038;-79
2022/11/24 09:46:59;;;;;;;17.52;3.28;;;;;;;7.49;99.46;100968.38;4827720;29;20034;-78
2022/11/24 09:49:46;;;;;;;16.45;3.20;;;;;;;7.52;99.28;100979.78;4844365;29;20132;-79
2022/11/24 09:52:17;;;;;;;21.35;3.33;;;;;;;7.52;99.14;100968.38;4827322;29;20124;-79
2022/11/24 09:54:59;;;;;;;11.75;2.80;;;;;;;7.58;99.30;100972.72;4827532;29;20045;-78
2022/11/24 09:57:25;;;;;;;;;;;;;;;7.68;99.41;100975.28;4827881;29;20050;-78
2022/11/24 09:59:51;;;;;;;14.18;3.22;;;;;;;7.67;98.71;100980.56;4836709;29;20370;-79
2022/11/24 10:02:16;;;;;;;22.15;7.45;;;;;;;7.74;98.53;100984.91;4819712;29;20070;-79
2022/11/24 10:04:45;;;;;;;16.13;3.05;;;;;;;7.78;97.85;100983.97;4844025;29;20136;-78
2022/11/24 10:07:10;;;;;;;13.85;2.92;;;;;;;7.88;97.52;100995.31;4842704;29;20419;-80
2022/11/24 10:10:14;;;;;;;16.08;3.35;;;;;;;7.92;96.54;100994.44;4844016;29;20069;-79
2022/11/24 10:12:46;;;;;;;20.42;3.38;;;;;;;7.90;97.45;100985.66;4843958;29;20166;-79
2022/11/24 10:15:17;;;;;;;23.15;3.60;;;;;;;7.96;96.81;100999.66;4843797;29;20038;-80
2022/11/24 10:18:01;;;;;;;;;;;;;;;8.06;97.39;101003.09;4844231;29;20787;-80
2022/11/24 10:20:44;;;;;;;13.75;3.25;;;;;;;8.08;97.71;101005.69;4812255;29;19916;-80
2022/11/24 10:23:22;;;;;;;21.92;3.45;;;;;;;8.14;97.41;101006.53;4827031;29;20038;-80
2022/11/24 10:26:02;;;;;;;19.15;3.75;;;;;;;8.19;97.01;101022.31;4843563;29;20489;-80
2022/11/24 10:28:54;;;;;;;27.73;4.43;;;;;;;8.24;94.90;101009.09;4830439;29;20042;-80
2022/11/24 10:31:35;;;;;;;25.67;4.43;;;;;;;8.24;95.76;101015.25;4828873;29;20112;-81
2022/11/24 10:34:16;;;;;;;17.90;3.10;;;;;;;8.33;95.14;101025.72;4835325;29;20034;-81
2022/11/24 10:36:52;;;;;;;16.35;3.47;;;;;;;8.35;96.44;101026.53;4841291;29;20145;-81
2022/11/24 10:39:30;;;;;;;17.27;3.47;;;;;;;8.42;95.56;101016.84;4843541;29;20046;-81
2022/11/24 10:42:04;;;;;;;20.27;3.83;;;;;;;8.50;94.93;101033.47;4827068;29;20704;-80
2022/11/24 10:44:30;;;;;;;14.45;3.35;;;;;;;8.57;93.98;101032.50;4826928;29;20030;-80
2022/11/24 10:46:55;;;;;;;15.13;3.13;;;;;;;8.61;94.20;101028.97;4811848;29;20497;-81
2022/11/24 10:49:28;;;;;;;18.10;3.33;;;;;;;8.72;93.80;101026.19;4826968;29;20487;-80
2022/11/24 10:52:15;;;;;;;15.45;3.35;;;;;;;8.74;93.38;101021.78;4811317;29;20070;-81
2022/11/24 10:54:55;;;;;;;13.10;3.25;;;;;;;8.74;92.51;101024.41;4833740;29;20114;-87
2022/11/24 10:57:29;;;;;;;22.05;3.65;;;;;;;8.83;93.88;101034.88;4825835;29;20387;-87
2022/11/24 10:59:55;;;;;;;18.58;3.50;;;;;;;8.92;92.55;101030.38;4809223;29;20065;-87
2022/11/24 11:02:27;;;;;;;20.23;3.53;;;;;;;9.03;93.54;101033.78;4825654;29;20502;-87
2022/11/24 11:04:52;;;;;;;19.25;3.65;;;;;;;9.07;91.33;101024.03;4825596;29;20074;-86
2022/11/24 11:07:24;;;;;;;16.77;3.22;;;;;;;9.11;90.58;101023.09;4791322;29;20078;-86
2022/11/24 11:10:21;;;;;;;19.58;4.65;;;;;;;9.23;90.43;101036.16;4825127;29;20070;-86
2022/11/24 11:12:47;;;;;;;18.65;2.85;;;;;;;9.25;90.46;101022.03;4812900;29;20049;-87
2022/11/24 11:15:28;;;;;;;18.98;3.28;;;;;;;9.35;90.09;101013.97;4820318;29;20427;-86
2022/11/24 11:17:59;;;;;;;13.80;3.20;;;;;;;9.31;90.04;101021.06;4837812;29;20038;-87
2022/11/24 11:20:28;;;;;;;15.23;3.83;;;;;;;9.41;89.61;101016.53;4808810;29;20073;-88
2022/11/24 11:22:55;;;;;;;21.60;3.83;;;;;;;9.45;88.31;101021.75;4825645;29;20065;-88
2022/11/24 11:25:26;;;;;;;21.63;3.58;;;;;;;9.52;89.32;101021.66;4825371;29;20487;-88
2022/11/24 11:28:16;;;;;;;16.73;3.30;;;;;;;9.63;87.34;101020.59;4806772;29;20042;-86